Time;durP1;ratioP1;P1;durP2;ratioP2;P2;SDS_P1;SDS_P2;PMS_P1;PMS_P2;Temp;Humidity;BMP_temperature;BMP_pressure;BME280_temperature;BME280_humidity;BME280_pressure;Samples;Min_cycle;Max_cycle;Signal;HPM_P1;HPM_P2
2022/01/26 00:00:06;;;;;;;98.85;41.20;;;2.50;99.90;;;;;;6137534;23;20056;-79
2022/01/26 00:08:06;;;;;;;85.65;33.17;;;2.40;99.90;;;;;;6160263;23;20101;-79
2022/01/26 00:10:33;;;;;;;99.15;38.45;;;2.40;99.90;;;;;;6135767;23;20006;-78
2022/01/26 00:12:59;;;;;;;89.32;35.45;;;2.40;99.90;;;;;;6160596;23;20017;-78
2022/01/26 00:15:27;;;;;;;84.78;34.05;;;2.40;99.90;;;;;;6160914;23;20427;-78
2022/01/26 00:17:54;;;;;;;85.38;33.75;;;2.40;99.90;;;;;;6160373;23;20375;-79
2022/01/26 00:20:26;;;;;;;102.22;39.28;;;2.40;99.90;;;;;;6161102;23;20038;-79
2022/01/26 00:25:40;;;;;;;86.55;35.33;;;2.40;99.90;;;;;;6160590;23;20002;-79
2022/01/26 00:28:20;;;;;;;98.40;39.40;;;2.30;99.90;;;;;;6159978;23;20343;-79
2022/01/26 00:38:53;;;;;;;78.38;29.88;;;2.40;99.90;;;;;;6159650;23;20050;-79
2022/01/26 00:41:33;;;;;;;70.10;27.15;;;2.40;99.90;;;;;;6111713;23;20081;-79
2022/01/26 00:43:59;;;;;;;112.47;44.22;;;2.40;99.90;;;;;;6135409;23;20451;-79
2022/01/26 00:46:26;;;;;;;103.95;40.33;;;2.30;99.90;;;;;;6087649;23;20014;-79
2022/01/26 00:48:52;;;;;;;80.78;31.70;;;2.30;99.90;;;;;;6160271;23;20017;-79
2022/01/26 00:51:20;;;;;;;83.57;32.08;;;2.30;99.90;;;;;;6137595;23;20054;-79
2022/01/26 00:53:53;;;;;;;75.78;29.27;;;2.30;99.90;;;;;;6159485;23;20102;-78
2022/01/26 00:56:19;;;;;;;89.07;34.88;;;2.30;99.90;;;;;;6087346;23;20014;-78
2022/01/26 00:58:46;;;;;;;97.40;36.33;;;2.20;99.90;;;;;;6160211;23;20006;-78
2022/01/26 01:01:11;;;;;;;97.28;37.35;;;2.20;99.90;;;;;;6160554;23;20013;-79
2022/01/26 01:03:42;;;;;;;95.28;38.78;;;2.20;99.90;;;;;;6160178;23;20026;-78
2022/01/26 01:06:15;;;;;;;;;;;2.20;99.90;;;;;;6135972;23;20013;-78
2022/01/26 01:08:42;;;;;;;74.85;28.83;;;2.20;99.90;;;;;;6135226;23;19905;-78
2022/01/26 01:11:09;;;;;;;61.30;23.40;;;2.20;99.90;;;;;;6160494;23;20010;-78
2022/01/26 01:13:38;;;;;;;93.28;34.80;;;2.20;99.90;;;;;;6135325;23;20321;-78
2022/01/26 01:16:07;;;;;;;90.28;33.03;;;2.20;99.90;;;;;;6087432;23;20340;-78
2022/01/26 01:21:36;;;;;;;62.22;24.67;;;2.20;99.90;;;;;;6162068;23;20006;-78
2022/01/26 01:29:14;;;;;;;75.78;29.27;;;2.20;99.90;;;;;;6138998;23;20002;-79
2022/01/26 01:34:09;;;;;;;79.32;28.92;;;2.20;99.90;;;;;;6161735;23;20006;-77
2022/01/26 01:36:39;;;;;;;97.57;36.95;;;2.10;99.90;;;;;;6112576;23;20010;-78
2022/01/26 01:39:07;;;;;;;110.57;42.30;;;2.10;99.90;;;;;;6112962;23;20447;-78
2022/01/26 01:41:34;;;;;;;107.00;43.97;;;2.10;99.90;;;;;;6162076;23;20010;-78
2022/01/26 01:52:27;;;;;;;97.53;35.10;;;2.00;99.90;;;;;;6138246;23;20020;-78
2022/01/26 01:54:54;;;;;;;91.35;34.20;;;2.00;99.90;;;;;;6113027;23;20006;-78
2022/01/26 02:04:55;;;;;;;78.68;29.25;;;2.00;99.90;;;;;;6138023;23;20036;-78
2022/01/26 02:07:21;;;;;;;70.53;25.90;;;2.00;99.90;;;;;;6136599;23;20029;-78
2022/01/26 02:09:46;;;;;;;67.88;25.88;;;2.00;99.90;;;;;;6137052;23;20092;-78
2022/01/26 02:12:16;;;;;;;76.78;29.63;;;2.00;99.90;;;;;;6162122;23;20002;-78
2022/01/26 02:14:47;;;;;;;61.10;23.83;;;2.00;99.90;;;;;;6161799;23;20021;-78
2022/01/26 02:17:27;;;;;;;56.80;21.95;;;2.00;99.90;;;;;;6160613;23;20014;-78
2022/01/26 02:52:55;;;;;;;48.72;18.67;;;2.00;99.90;;;;;;6138557;23;20008;-78
2022/01/26 02:55:34;;;;;;;42.90;15.43;;;2.00;99.90;;;;;;6136382;23;20452;-78
2022/01/26 03:00:42;;;;;;;44.83;16.75;;;2.00;99.90;;;;;;6138450;23;20471;-78
2022/01/26 03:03:15;;;;;;;46.58;16.15;;;2.00;99.90;;;;;;6161111;23;20109;-78
2022/01/26 03:05:50;;;;;;;63.42;24.83;;;2.00;99.90;;;;;;6137638;23;20443;-78
2022/01/26 03:08:17;;;;;;;61.13;22.95;;;2.00;99.90;;;;;;6136660;23;20038;-77
2022/01/26 03:10:53;;;;;;;56.17;21.00;;;2.00;99.90;;;;;;6136804;23;20002;-78
2022/01/26 03:13:25;;;;;;;54.95;20.90;;;2.00;99.90;;;;;;6161561;23;20009;-78
2022/01/26 03:15:58;;;;;;;49.13;17.67;;;2.00;99.90;;;;;;6136201;23;20343;-78
2022/01/26 03:20:55;;;;;;;78.95;28.40;;;2.00;99.90;;;;;;6137553;23;20077;-78
2022/01/26 03:36:53;;;;;;;61.80;23.05;;;2.10;99.90;;;;;;6128241;23;20124;-78
2022/01/26 03:39:21;;;;;;;61.65;21.80;;;2.00;99.90;;;;;;6136512;23;20021;-78
2022/01/26 03:42:08;;;;;;;44.78;16.85;;;2.10;99.90;;;;;;6137773;23;20053;-78
2022/01/26 03:44:35;;;;;;;38.53;14.30;;;2.10;99.90;;;;;;6160978;23;20010;-78
2022/01/26 03:47:01;;;;;;;58.00;22.27;;;2.00;99.90;;;;;;6159936;23;20006;-78
2022/01/26 03:49:27;;;;;;;54.28;21.10;;;2.10;99.90;;;;;;6138375;23;20016;-78
2022/01/26 03:51:53;;;;;;;47.63;17.80;;;2.10;99.90;;;;;;6111644;23;20016;-78
2022/01/26 03:54:20;;;;;;;45.95;16.48;;;2.10;99.90;;;;;;6111571;23;20033;-78
2022/01/26 03:56:46;;;;;;;37.55;14.35;;;2.10;99.90;;;;;;6135902;23;20444;-78
2022/01/26 03:59:12;;;;;;;36.70;13.27;;;2.10;99.90;;;;;;6087987;23;20457;-78
2022/01/26 04:01:38;;;;;;;36.55;13.93;;;2.10;99.90;;;;;;6160279;23;20031;-78
2022/01/26 04:04:04;;;;;;;36.30;13.23;;;2.10;99.90;;;;;;6087275;23;20101;-78
2022/01/26 04:06:31;;;;;;;31.98;11.98;;;2.10;99.90;;;;;;6087914;23;20013;-78
2022/01/26 04:08:57;;;;;;;42.55;14.07;;;2.10;99.90;;;;;;6136027;23;20020;-78
2022/01/26 04:11:41;;;;;;;59.35;22.40;;;2.10;99.90;;;;;;6160432;23;20010;-78
2022/01/26 04:14:10;;;;;;;53.22;20.15;;;2.10;99.90;;;;;;6135624;23;20020;-78
2022/01/26 04:16:38;;;;;;;54.00;19.73;;;2.10;99.90;;;;;;6137134;23;20014;-78
2022/01/26 04:19:04;;;;;;;61.58;24.88;;;2.10;99.90;;;;;;6087378;23;20250;-79
2022/01/26 04:29:11;;;;;;;51.28;18.20;;;2.20;99.90;;;;;;6137532;23;20073;-77
2022/01/26 04:31:36;;;;;;;44.47;17.50;;;2.20;99.90;;;;;;6111168;23;20014;-78
2022/01/26 04:34:02;;;;;;;42.17;15.07;;;2.20;99.90;;;;;;6160341;23;20039;-78
2022/01/26 04:36:34;;;;;;;42.00;15.68;;;2.20;99.90;;;;;;6160798;23;20043;-78
2022/01/26 04:39:04;;;;;;;35.95;13.88;;;2.20;99.90;;;;;;6160081;23;20006;-79
2022/01/26 04:41:39;;;;;;;43.33;15.07;;;2.20;99.90;;;;;;6160710;23;20010;-78
2022/01/26 04:44:11;;;;;;;33.13;12.82;;;2.20;99.90;;;;;;6087408;23;20024;-79
2022/01/26 04:46:37;;;;;;;35.17;12.43;;;2.20;99.90;;;;;;6159604;23;20060;-78
2022/01/26 04:49:03;;;;;;;37.97;13.85;;;2.20;99.90;;;;;;6137193;23;20451;-78
2022/01/26 04:51:28;;;;;;;36.60;13.32;;;2.20;99.90;;;;;;6160567;23;20002;-79
2022/01/26 04:53:54;;;;;;;37.05;14.57;;;2.20;99.90;;;;;;6110816;23;20096;-78
2022/01/26 04:56:20;;;;;;;38.30;14.13;;;2.20;99.90;;;;;;6164668;23;20017;-78
2022/01/26 04:58:45;;;;;;;36.83;14.13;;;2.20;99.90;;;;;;6165948;23;20036;-78
2022/01/26 05:01:11;;;;;;;37.75;14.52;;;2.20;99.90;;;;;;6160411;23;20016;-78
2022/01/26 05:03:37;;;;;;;33.38;12.82;;;2.20;99.90;;;;;;6135843;23;20021;-78
2022/01/26 05:06:02;;;;;;;34.05;11.80;;;2.20;99.90;;;;;;6136992;23;20012;-78
2022/01/26 05:08:28;;;;;;;39.58;14.35;;;2.20;99.90;;;;;;6160789;23;20060;-78
2022/01/26 05:10:53;;;;;;;38.05;13.98;;;2.20;99.90;;;;;;6135409;23;20088;-78
2022/01/26 05:13:19;;;;;;;38.42;14.25;;;2.20;99.90;;;;;;6160152;23;20344;-78
2022/01/26 05:15:45;;;;;;;30.60;12.27;;;2.20;99.90;;;;;;6159633;23;20336;-78
2022/01/26 05:21:58;;;;;;;28.00;10.70;;;2.20;99.90;;;;;;6134508;23;20029;-78
2022/01/26 05:24:24;;;;;;;30.02;11.70;;;2.20;99.90;;;;;;6160108;23;20010;-78
2022/01/26 05:26:50;;;;;;;38.33;13.38;;;2.30;99.90;;;;;;6159822;23;20410;-78
2022/01/26 05:29:15;;;;;;;35.33;13.52;;;2.20;99.90;;;;;;6159849;23;20447;-78
2022/01/26 05:31:41;;;;;;;41.15;15.95;;;2.20;99.90;;;;;;6160508;23;20030;-78
2022/01/26 05:34:07;;;;;;;43.15;15.75;;;2.20;99.90;;;;;;6160139;23;20014;-78
2022/01/26 05:36:33;;;;;;;43.67;15.88;;;2.20;99.90;;;;;;6159795;23;20013;-78
2022/01/26 05:38:59;;;;;;;35.72;13.65;;;2.20;99.90;;;;;;6160149;23;20065;-78
2022/01/26 05:41:24;;;;;;;42.80;15.07;;;2.20;99.90;;;;;;6160091;23;20269;-78
2022/01/26 05:43:50;;;;;;;32.45;12.90;;;2.20;99.90;;;;;;6159520;23;20014;-78
2022/01/26 05:46:24;;;;;;;37.25;12.38;;;2.20;99.90;;;;;;6159713;23;20006;-78
2022/01/26 05:48:52;;;;;;;45.80;16.45;;;2.20;99.90;;;;;;6159621;23;20014;-77
2022/01/26 05:51:17;;;;;;;38.80;15.45;;;2.20;99.90;;;;;;6108769;23;20002;-78
2022/01/26 05:53:45;;;;;;;43.20;17.00;;;2.30;99.90;;;;;;6137141;23;20021;-78
2022/01/26 05:56:11;;;;;;;46.53;18.70;;;2.20;99.90;;;;;;6159926;23;20400;-78
2022/01/26 05:58:37;;;;;;;41.13;16.25;;;2.20;99.90;;;;;;6159554;23;20006;-78
2022/01/26 06:01:03;;;;;;;41.92;16.95;;;2.30;99.90;;;;;;6159913;23;20018;-78
2022/01/26 06:03:29;;;;;;;42.85;15.55;;;2.30;99.90;;;;;;6159737;23;20017;-78
2022/01/26 06:05:55;;;;;;;44.80;16.70;;;2.30;99.90;;;;;;6086324;23;20014;-78
2022/01/26 06:08:22;;;;;;;49.38;18.52;;;2.30;99.90;;;;;;6137386;23;20017;-78
2022/01/26 06:10:52;;;;;;;44.80;16.27;;;2.30;99.90;;;;;;6138420;23;20705;-77
2022/01/26 06:13:18;;;;;;;39.05;15.48;;;2.30;99.90;;;;;;6087286;23;20033;-77
2022/01/26 06:15:44;;;;;;;43.20;15.20;;;2.30;99.90;;;;;;6112024;23;20057;-77
2022/01/26 06:18:11;;;;;;;44.22;18.05;;;2.30;99.90;;;;;;6139021;23;20368;-78
2022/01/26 06:20:37;;;;;;;45.00;17.85;;;2.30;99.90;;;;;;6136691;23;20053;-78
2022/01/26 06:23:04;;;;;;;49.90;18.08;;;2.30;99.90;;;;;;6136917;23;20466;-79
2022/01/26 06:25:30;;;;;;;44.63;16.95;;;2.30;99.90;;;;;;6136530;23;20010;-78
2022/01/26 06:27:59;;;;;;;44.83;16.13;;;2.30;99.90;;;;;;6160531;23;20057;-79
2022/01/26 06:30:25;;;;;;;52.65;18.52;;;2.30;99.90;;;;;;6112676;23;20025;-77
2022/01/26 06:32:51;;;;;;;50.95;19.30;;;2.30;99.90;;;;;;6136361;23;20010;-78
2022/01/26 06:35:20;;;;;;;56.25;20.65;;;2.30;99.90;;;;;;6112003;23;20014;-77
2022/01/26 06:37:46;;;;;;;51.20;19.20;;;2.40;99.90;;;;;;6138375;23;20010;-77
2022/01/26 06:40:12;;;;;;;52.28;19.48;;;2.40;99.90;;;;;;6140312;23;20013;-78
2022/01/26 06:54:01;;;;;;;44.80;16.83;;;2.30;99.90;;;;;;6136930;23;20044;-78
2022/01/26 06:56:27;;;;;;;42.40;16.63;;;2.30;99.90;;;;;;6108187;23;20018;-78
2022/01/26 06:58:52;;;;;;;47.30;18.50;;;2.40;99.90;;;;;;6111810;23;20010;-80
2022/01/26 07:05:11;;;;;;;45.80;17.10;;;2.30;99.90;;;;;;6135972;23;20029;-78
2022/01/26 07:07:37;;;;;;;51.78;19.27;;;2.30;99.90;;;;;;6161690;23;20014;-78
2022/01/26 07:10:04;;;;;;;60.35;21.42;;;2.40;99.90;;;;;;6135985;23;20068;-78
2022/01/26 07:12:30;;;;;;;49.15;20.85;;;2.40;99.90;;;;;;6112452;23;20014;-77
2022/01/26 07:23:06;;;;;;;52.80;18.77;;;2.40;99.90;;;;;;6160956;23;20021;-78
2022/01/26 07:25:32;;;;;;;62.55;22.73;;;2.40;99.90;;;;;;6087333;23;20010;-78
2022/01/26 07:28:01;;;;;;;57.35;22.33;;;2.40;99.90;;;;;;6160400;23;20009;-78
2022/01/26 07:30:26;;;;;;;53.17;20.38;;;2.40;99.90;;;;;;6112140;23;20018;-78
2022/01/26 07:32:52;;;;;;;62.70;23.73;;;2.40;99.90;;;;;;6160384;23;20006;-78
2022/01/26 07:35:18;;;;;;;61.92;23.85;;;2.30;99.90;;;;;;6160804;23;20001;-78
2022/01/26 07:37:44;;;;;;;60.95;22.55;;;2.30;99.90;;;;;;6136170;23;20010;-78
2022/01/26 15:40:19;;;;;;;32.85;15.20;;;4.20;99.90;;;;;;6199949;23;20013;-78
2022/01/26 16:06:22;;;;;;;19.35;8.75;;;4.10;99.90;;;;;;6226936;23;20032;-77
2022/01/26 17:24:58;;;;;;;42.97;20.58;;;4.00;99.90;;;;;;6200059;23;20009;-81
2022/01/26 18:13:04;;;;;;;47.05;22.92;;;3.90;99.90;;;;;;6198379;23;20035;-79
2022/01/26 18:13:23;;;;;;;43.97;21.60;;;3.80;99.90;;;;;;6198440;23;20005;-79
2022/01/26 18:15:53;;;;;;;36.25;18.17;;;3.80;99.90;;;;;;6198027;23;20009;-79
2022/01/26 18:26:49;;;;;;;49.05;23.83;;;3.80;99.90;;;;;;6201167;23;20429;-78
2022/01/26 18:52:28;;;;;;;40.92;20.98;;;3.80;99.90;;;;;;6227772;23;20071;-79
2022/01/26 18:54:53;;;;;;;37.67;16.90;;;3.80;99.90;;;;;;6175822;23;20513;-79
2022/01/26 18:57:19;;;;;;;40.25;19.00;;;3.80;99.90;;;;;;6201301;23;20015;-79
2022/01/26 18:59:46;;;;;;;37.15;17.00;;;3.70;99.90;;;;;;6176045;23;20013;-79
2022/01/26 19:10:13;;;;;;;41.90;19.13;;;3.70;99.90;;;;;;6197777;23;20449;-79
2022/01/26 19:12:40;;;;;;;51.45;22.80;;;3.70;99.90;;;;;;6170793;23;20016;-79
2022/01/26 19:15:11;;;;;;;56.75;24.23;;;3.60;99.90;;;;;;6170502;23;20013;-79
2022/01/26 19:18:03;;;;;;;52.38;24.95;;;3.70;99.90;;;;;;6146800;23;20012;-79
2022/01/26 19:23:33;;;;;;;56.40;25.50;;;3.70;99.90;;;;;;6174607;23;20350;-82
2022/01/26 19:26:10;;;;;;;55.25;24.35;;;3.70;99.90;;;;;;6171224;23;20016;-78
2022/01/26 19:28:41;;;;;;;57.60;26.23;;;3.70;99.90;;;;;;6197156;23;20156;-81
2022/01/26 19:45:06;;;;;;;35.95;16.27;;;3.70;99.90;;;;;;6196478;23;20024;-79
2022/01/26 19:52:59;;;;;;;46.80;21.17;;;3.60;99.90;;;;;;6170414;23;20013;-78
2022/01/26 19:55:26;;;;;;;55.00;24.02;;;3.70;99.90;;;;;;6197768;23;20044;-78
2022/01/26 19:57:53;;;;;;;50.08;21.60;;;3.60;99.90;;;;;;6170696;23;20066;-79
2022/01/26 20:00:19;;;;;;;44.67;20.23;;;3.60;99.90;;;;;;6169926;23;20493;-79
2022/01/26 20:02:44;;;;;;;43.90;20.10;;;3.70;99.90;;;;;;6197125;23;20021;-79
2022/01/26 20:05:14;;;;;;;38.88;16.70;;;3.70;99.90;;;;;;6197200;23;20009;-78
2022/01/26 20:07:42;;;;;;;45.20;20.55;;;3.60;99.90;;;;;;6192114;23;20085;-79
2022/01/26 20:10:09;;;;;;;41.50;18.38;;;3.60;99.90;;;;;;6224716;23;20012;-78
2022/01/26 20:12:44;;;;;;;43.72;19.05;;;3.60;99.90;;;;;;6199555;23;20004;-78
2022/01/26 20:15:10;;;;;;;47.60;21.13;;;3.60;99.90;;;;;;6226567;23;20012;-79
2022/01/26 20:17:36;;;;;;;48.13;21.67;;;3.70;99.90;;;;;;6226503;23;20039;-79
2022/01/26 20:20:01;;;;;;;53.70;23.50;;;3.70;99.90;;;;;;6226373;23;20004;-79
2022/01/26 20:49:32;;;;;;;38.50;15.27;;;3.60;99.90;;;;;;6158443;23;20034;-80
2022/01/26 20:51:58;;;;;;;47.45;18.33;;;3.60;99.90;;;;;;6168662;23;20092;-78
2022/01/26 20:54:23;;;;;;;40.72;17.45;;;3.60;99.90;;;;;;6167988;23;20045;-79
2022/01/26 20:56:49;;;;;;;36.05;15.85;;;3.60;99.90;;;;;;6163491;23;20436;-78
2022/01/26 20:59:14;;;;;;;34.15;14.18;;;3.60;99.90;;;;;;6163759;23;20005;-79
2022/01/26 21:01:40;;;;;;;38.85;17.15;;;3.60;99.90;;;;;;6162896;23;20018;-81
2022/01/26 21:04:07;;;;;;;44.42;18.98;;;3.60;99.90;;;;;;6163057;23;20022;-79
2022/01/26 21:06:32;;;;;;;41.08;17.58;;;3.60;99.90;;;;;;6163304;23;20005;-82
2022/01/26 21:08:58;;;;;;;36.50;15.98;;;3.60;99.90;;;;;;6114137;23;20094;-81
2022/01/26 21:11:24;;;;;;;38.33;15.77;;;3.60;99.90;;;;;;6162030;23;20017;-81
2022/01/26 21:13:53;;;;;;;37.00;14.68;;;3.60;99.90;;;;;;6192202;23;20077;-80
2022/01/26 21:16:19;;;;;;;34.28;15.43;;;3.60;99.90;;;;;;6196416;23;19997;-79
2022/01/26 21:18:44;;;;;;;33.92;13.77;;;3.60;99.90;;;;;;6196815;23;20059;-82
2022/01/26 21:21:10;;;;;;;34.90;14.70;;;3.60;99.90;;;;;;6195810;23;20009;-81
2022/01/26 21:23:36;;;;;;;42.67;17.83;;;3.60;99.90;;;;;;6195311;23;20522;-78
2022/01/26 21:26:02;;;;;;;46.47;18.55;;;3.60;99.90;;;;;;6194778;23;20009;-80
2022/01/26 21:28:30;;;;;;;43.20;18.02;;;3.60;99.90;;;;;;6195803;23;20013;-78
2022/01/26 21:30:56;;;;;;;38.95;16.92;;;3.60;99.90;;;;;;6196818;23;20436;-81
2022/01/26 21:33:23;;;;;;;43.05;17.67;;;3.60;99.90;;;;;;6170032;23;20037;-80
2022/01/26 21:35:48;;;;;;;34.97;14.82;;;3.60;99.90;;;;;;6195249;23;20005;-81
2022/01/26 21:38:15;;;;;;;33.20;14.68;;;3.60;99.90;;;;;;6198647;23;20005;-81
2022/01/26 21:40:43;;;;;;;41.60;18.63;;;3.60;99.90;;;;;;6198337;23;20001;-81
2022/01/26 21:43:09;;;;;;;43.35;19.13;;;3.70;99.90;;;;;;6198776;23;20016;-81
2022/01/26 21:45:34;;;;;;;34.85;14.68;;;3.60;99.90;;;;;;6172267;23;20013;-80
2022/01/26 21:48:01;;;;;;;34.65;14.75;;;3.70;99.90;;;;;;6198587;23;20063;-81
2022/01/26 21:50:26;;;;;;;33.95;14.02;;;3.70;99.90;;;;;;6196907;23;20005;-80
2022/01/26 21:52:52;;;;;;;40.45;17.80;;;3.60;99.90;;;;;;6197232;23;20083;-79
2022/01/26 21:55:17;;;;;;;35.80;16.52;;;3.70;99.90;;;;;;6196549;23;20008;-80
2022/01/26 21:57:46;;;;;;;37.97;16.33;;;3.60;99.90;;;;;;6198898;23;20009;-80
2022/01/26 22:00:16;;;;;;;34.22;15.15;;;3.60;99.90;;;;;;6198569;23;19997;-80
2022/01/26 22:02:43;;;;;;;32.10;13.18;;;3.60;99.90;;;;;;6196790;23;20040;-80
2022/01/26 22:05:09;;;;;;;37.33;15.20;;;3.70;99.90;;;;;;6196946;23;20025;-79
2022/01/26 22:07:35;;;;;;;31.17;12.43;;;3.60;99.90;;;;;;6199412;23;20016;-79
2022/01/26 22:10:01;;;;;;;30.80;12.95;;;3.70;99.90;;;;;;6176653;23;20052;-81
2022/01/26 22:12:26;;;;;;;36.38;15.00;;;3.70;99.90;;;;;;6177097;23;20039;-80
2022/01/26 22:14:52;;;;;;;30.25;13.00;;;3.70;99.90;;;;;;6201902;23;20015;-80
2022/01/26 22:17:18;;;;;;;28.58;12.48;;;3.70;99.90;;;;;;6228363;23;20004;-79
2022/01/26 22:19:43;;;;;;;26.17;11.50;;;3.70;99.90;;;;;;6202139;23;20070;-83
2022/01/26 22:22:09;;;;;;;33.15;15.02;;;3.70;99.90;;;;;;6204140;23;20042;-82
2022/01/26 22:24:36;;;;;;;34.22;13.60;;;3.70;99.90;;;;;;6175643;23;20016;-79
2022/01/26 22:27:02;;;;;;;25.83;11.20;;;3.70;99.90;;;;;;6228695;23;20090;-80
2022/01/26 22:29:28;;;;;;;33.28;13.70;;;3.70;99.90;;;;;;6201702;23;20005;-80
2022/01/26 22:31:55;;;;;;;33.40;15.18;;;3.80;99.90;;;;;;6228328;23;20013;-80
2022/01/26 22:34:22;;;;;;;34.38;15.90;;;3.80;99.90;;;;;;6201047;23;20060;-82
2022/01/26 22:36:48;;;;;;;36.17;15.70;;;3.80;99.90;;;;;;6202215;23;20016;-82
2022/01/26 22:39:14;;;;;;;32.83;15.25;;;3.80;99.90;;;;;;6205415;23;20019;-79
2022/01/26 22:41:40;;;;;;;32.08;15.00;;;3.80;99.90;;;;;;6210574;23;20044;-82
2022/01/26 22:44:05;;;;;;;34.03;15.40;;;3.80;99.90;;;;;;6203385;23;20019;-82
2022/01/26 22:46:31;;;;;;;33.65;14.82;;;3.80;99.90;;;;;;6228273;23;20000;-80
2022/01/26 22:48:58;;;;;;;29.35;13.70;;;3.80;99.90;;;;;;6201474;23;20016;-82
2022/01/26 22:51:23;;;;;;;30.77;14.18;;;3.80;99.90;;;;;;6228219;23;20024;-80
2022/01/26 22:53:49;;;;;;;31.95;15.05;;;3.80;99.90;;;;;;6200763;23;20015;-79
2022/01/26 22:56:15;;;;;;;27.45;13.32;;;3.80;99.90;;;;;;6201541;23;20012;-79
2022/01/26 22:58:40;;;;;;;30.42;14.82;;;3.80;99.90;;;;;;6176760;23;20091;-81
2022/01/26 23:04:43;;;;;;;31.98;14.73;;;3.80;99.90;;;;;;6229988;23;20011;-80
2022/01/26 23:07:09;;;;;;;48.63;23.45;;;3.80;99.90;;;;;;6201220;23;20008;-81
2022/01/26 23:09:35;;;;;;;40.15;19.92;;;3.80;99.90;;;;;;6196768;23;20024;-82
2022/01/26 23:12:00;;;;;;;38.88;18.30;;;3.80;99.90;;;;;;6197075;23;20012;-81
2022/01/26 23:14:32;;;;;;;37.15;17.67;;;3.80;99.90;;;;;;6196225;23;20023;-82
2022/01/26 23:16:58;;;;;;;41.63;19.13;;;3.80;99.90;;;;;;6198198;23;20274;-82
2022/01/26 23:19:23;;;;;;;34.08;16.27;;;3.80;99.90;;;;;;6197648;23;20248;-82
2022/01/26 23:21:49;;;;;;;30.98;16.48;;;3.80;99.90;;;;;;6196064;23;20009;-81
2022/01/26 23:24:15;;;;;;;32.50;17.00;;;3.80;99.90;;;;;;6197652;23;20021;-80
2022/01/26 23:26:46;;;;;;;43.13;21.17;;;3.80;99.90;;;;;;6198099;23;20001;-80
2022/01/26 23:29:26;;;;;;;45.42;21.85;;;3.80;99.90;;;;;;6197903;23;20088;-80
2022/01/26 23:35:00;;;;;;;44.40;23.23;;;3.80;99.90;;;;;;6195538;23;20039;-80
